Time;durP1;ratioP1;P1;durP2;ratioP2;P2;SDS_P1;SDS_P2;PMS_P1;PMS_P2;Temp;Humidity;BMP_temperature;BMP_pressure;BME280_temperature;BME280_humidity;BME280_pressure;Samples;Min_cycle;Max_cycle;Signal;HPM_P1;HPM_P2
2020/12/22 00:01:45;;;;;;;1.36;0.35;;;;;;;10.07;92.10;99273.88;2053731;78;21064;-75
2020/12/22 00:04:47;;;;;;;1.06;0.50;;;;;;;10.08;92.14;99266.94;2052384;78;20347;-76
2020/12/22 00:07:49;;;;;;;0.30;0.30;;;;;;;10.09;92.24;99269.53;2053321;78;20353;-76
2020/12/22 00:10:51;;;;;;;0.55;0.40;;;;;;;10.10;92.23;99271.25;2054669;78;20212;-76
2020/12/22 00:13:53;;;;;;;0.74;0.40;;;;;;;10.11;92.33;99267.78;2049546;78;20442;-76
2020/12/22 00:16:55;;;;;;;0.77;0.50;;;;;;;10.11;92.44;99272.97;2053970;78;20357;-76
2020/12/22 00:19:56;;;;;;;0.45;0.30;;;;;;;10.14;92.57;99270.38;2057148;78;20358;-76
2020/12/22 00:22:58;;;;;;;1.26;0.50;;;;;;;10.15;92.70;99272.09;2053274;78;20320;-76
2020/12/22 00:25:59;;;;;;;1.42;0.45;;;;;;;10.19;92.67;99267.75;2052498;78;20761;-76
2020/12/22 00:29:01;;;;;;;0.61;0.60;;;;;;;10.20;92.70;99270.31;2052626;78;20890;-77
2020/12/22 00:35:31;;;;;;;0.40;0.40;;;;;;;10.23;92.47;99254.81;2038662;69;20277;-76
2020/12/22 00:38:33;;;;;;;0.40;0.40;;;;;;;10.24;92.48;99256.53;2021181;80;20349;-76
2020/12/22 00:41:35;;;;;;;0.40;0.40;;;;;;;10.24;92.53;99247.88;2021680;80;20464;-76
2020/12/22 00:44:37;;;;;;;0.40;0.40;;;;;;;10.24;92.65;99264.31;2017937;80;20325;-76
2020/12/22 00:47:39;;;;;;;0.98;0.50;;;;;;;10.23;92.69;99275.56;2017004;80;20396;-76
2020/12/22 00:50:41;;;;;;;0.50;0.50;;;;;;;10.24;92.82;99271.22;2016728;80;20860;-76
2020/12/22 00:53:44;;;;;;;0.81;0.50;;;;;;;10.25;92.82;99260.84;2016599;80;20902;-76
2020/12/22 00:56:49;;;;;;;0.55;0.50;;;;;;;10.27;92.76;99263.44;2016346;80;20394;-76
2020/12/22 00:59:50;;;;;;;0.46;0.46;;;;;;;10.29;92.82;99256.50;2015850;80;20309;-76
2020/12/22 01:02:52;;;;;;;0.40;0.40;;;;;;;10.29;92.71;99253.91;2015614;80;20386;-75
2020/12/22 01:05:54;;;;;;;0.52;0.39;;;;;;;10.31;92.79;99264.25;2015996;80;20660;-76
2020/12/22 01:08:55;;;;;;;0.39;0.39;;;;;;;10.31;92.90;99261.66;2015980;80;20167;-76
2020/12/22 01:11:57;;;;;;;0.32;0.32;;;;;;;10.34;92.88;99269.44;2017276;80;20350;-76
2020/12/22 01:14:59;;;;;;;0.50;0.50;;;;;;;10.35;92.78;99271.16;2016340;80;20349;-75
2020/12/22 01:18:00;;;;;;;0.76;0.40;;;;;;;10.37;92.69;99269.41;2015902;80;20309;-75
2020/12/22 01:21:02;;;;;;;0.59;0.40;;;;;;;10.38;92.75;99263.34;2014273;80;20353;-75
2020/12/22 01:24:05;;;;;;;0.30;0.30;;;;;;;10.37;92.71;99265.06;2014878;80;20377;-75
2020/12/22 01:27:06;;;;;;;0.40;0.40;;;;;;;10.40;92.73;99265.06;2016014;80;20354;-75
2020/12/22 01:30:08;;;;;;;0.51;0.30;;;;;;;10.40;92.64;99271.97;2016332;80;20335;-76
2020/12/22 01:33:09;;;;;;;0.40;0.40;;;;;;;10.40;92.70;99269.38;2016030;80;20861;-76
2020/12/22 01:36:11;;;;;;;0.40;0.40;;;;;;;10.40;92.77;99275.44;2014953;80;20333;-75
2020/12/22 01:39:13;;;;;;;0.40;0.40;;;;;;;10.41;92.81;99264.22;2016514;80;20357;-76
2020/12/22 01:42:14;;;;;;;0.40;0.40;;;;;;;10.42;92.78;99265.06;2016363;80;20313;-75
2020/12/22 01:45:16;;;;;;;0.79;0.40;;;;;;;10.44;92.75;99268.53;2015932;80;20352;-76
2020/12/22 01:48:17;;;;;;;0.40;0.40;;;;;;;10.45;92.74;99275.44;2016711;80;20201;-75
2020/12/22 01:51:19;;;;;;;0.51;0.40;;;;;;;10.46;92.80;99295.34;2015922;80;20209;-77
2020/12/22 01:54:22;;;;;;;1.48;0.36;;;;;;;10.48;92.77;99286.66;2015404;80;20359;-76
2020/12/22 01:57:24;;;;;;;0.32;0.32;;;;;;;10.47;92.81;99287.53;2015953;80;20313;-75
2020/12/22 02:00:26;;;;;;;1.08;0.38;;;;;;;10.51;92.77;99280.59;2014362;80;20325;-76
2020/12/22 02:03:29;;;;;;;0.44;0.30;;;;;;;10.51;92.72;99280.59;2014218;80;20336;-76
2020/12/22 02:06:32;;;;;;;0.30;0.30;;;;;;;10.49;92.72;99278.00;2016179;80;20705;-75
2020/12/22 02:09:33;;;;;;;0.40;0.40;;;;;;;10.53;92.80;99284.03;2014155;80;20199;-77
2020/12/22 02:12:40;;;;;;;0.41;0.30;;;;;;;10.53;92.73;99277.09;2014622;80;20611;-76
2020/12/22 02:15:42;;;;;;;0.31;0.30;;;;;;;10.50;92.93;99277.13;2014778;80;20338;-76
2020/12/22 02:18:45;;;;;;;0.34;0.34;;;;;;;10.54;93.02;99283.16;2016033;80;20385;-75
2020/12/22 02:21:46;;;;;;;0.31;0.30;;;;;;;10.55;92.98;99290.06;2013719;80;20280;-75
2020/12/22 02:24:48;;;;;;;0.57;0.30;;;;;;;10.57;93.06;99289.19;2015525;80;20175;-75
2020/12/22 02:27:50;;;;;;;0.28;0.28;;;;;;;10.57;93.04;99286.59;2016112;80;20191;-76
2020/12/22 02:30:51;;;;;;;0.65;0.20;;;;;;;10.59;93.10;99281.38;2016742;80;20596;-75
2020/12/22 02:33:53;;;;;;;0.30;0.20;;;;;;;10.61;93.11;99277.06;2016469;80;20370;-75
2020/12/22 02:36:55;;;;;;;1.63;0.30;;;;;;;10.62;93.04;99275.34;2015900;80;20334;-75
2020/12/22 02:39:57;;;;;;;0.30;0.30;;;;;;;10.63;93.17;99287.44;2016363;80;20355;-75
2020/12/22 02:43:10;;;;;;;0.20;0.20;;;;;;;10.67;93.23;99303.00;2015490;80;20331;-75
2020/12/22 02:46:12;;;;;;;0.20;0.20;;;;;;;10.71;93.13;99281.31;2016210;80;20350;-75
2020/12/22 02:49:13;;;;;;;0.73;0.25;;;;;;;10.73;93.06;99283.91;2016338;80;20664;-75
2020/12/22 02:52:15;;;;;;;0.30;0.30;;;;;;;10.74;93.03;99286.47;2016415;80;20194;-74
2020/12/22 02:55:17;;;;;;;0.86;0.24;;;;;;;10.74;93.05;99278.69;2016334;80;21011;-74
2020/12/22 02:58:18;;;;;;;0.30;0.30;;;;;;;10.76;93.02;99281.28;2016380;80;20656;-75
2020/12/22 03:01:20;;;;;;;0.82;0.56;;;;;;;10.77;93.16;99283.00;2017439;80;20205;-76
2020/12/22 03:04:21;;;;;;;0.32;0.32;;;;;;;10.80;93.15;99293.38;2018374;80;20309;-75
2020/12/22 03:07:23;;;;;;;0.30;0.30;;;;;;;10.81;93.30;99300.31;2018890;80;20211;-76
2020/12/22 03:10:25;;;;;;;0.28;0.26;;;;;;;10.83;93.31;99304.63;2018693;80;20578;-75
2020/12/22 03:13:26;;;;;;;0.32;0.32;;;;;;;10.85;93.48;99295.06;2017638;80;20318;-76
2020/12/22 03:16:28;;;;;;;0.30;0.30;;;;;;;10.86;93.44;99299.38;2017932;80;20215;-75
2020/12/22 03:19:29;;;;;;;0.57;0.30;;;;;;;10.87;93.45;99298.50;2018503;80;20398;-75
2020/12/22 03:22:33;;;;;;;0.20;0.20;;;;;;;10.88;93.52;99297.63;2017795;80;20172;-76
2020/12/22 03:25:34;;;;;;;0.43;0.30;;;;;;;10.89;93.58;99283.78;2018372;80;20197;-75
2020/12/22 03:28:36;;;;;;;0.36;0.20;;;;;;;10.90;93.48;99284.63;2018533;80;20199;-75
2020/12/22 03:31:38;;;;;;;0.24;0.11;;;;;;;10.92;93.56;99277.69;2018200;80;20928;-75
2020/12/22 03:34:40;;;;;;;0.10;0.10;;;;;;;10.94;93.57;99281.13;2018633;80;20207;-75
2020/12/22 03:37:41;;;;;;;0.77;0.10;;;;;;;10.96;93.56;99278.56;2017655;80;20191;-75
2020/12/22 03:40:43;;;;;;;0.24;0.15;;;;;;;10.97;93.55;99281.16;2018477;80;20195;-76
2020/12/22 03:43:44;;;;;;;0.25;0.19;;;;;;;10.98;93.45;99287.19;2018273;80;20655;-76
2020/12/22 03:46:50;;;;;;;0.10;0.10;;;;;;;10.96;93.41;99287.22;2018536;80;20201;-75
2020/12/22 03:49:52;;;;;;;0.10;0.10;;;;;;;10.96;93.47;99278.56;2018245;80;20313;-76
2020/12/22 03:52:58;;;;;;;0.34;0.10;;;;;;;10.96;93.45;99284.63;2017918;80;20233;-75
2020/12/22 03:55:59;;;;;;;0.31;0.10;;;;;;;10.95;93.48;99284.59;2017654;80;20936;-75
2020/12/22 03:59:02;;;;;;;0.20;0.10;;;;;;;10.94;93.51;99283.72;2017358;80;20285;-75
2020/12/22 04:02:04;;;;;;;0.89;0.10;;;;;;;10.94;93.51;99275.94;2017939;80;20376;-76
2020/12/22 04:05:06;;;;;;;0.14;0.10;;;;;;;10.94;93.47;99275.94;2016491;80;20184;-75
2020/12/22 04:08:07;;;;;;;0.10;0.10;;;;;;;10.93;93.47;99283.75;2017211;80;20175;-76
2020/12/22 04:11:09;;;;;;;0.28;0.10;;;;;;;10.95;93.58;99289.78;2016831;80;20612;-75
2020/12/22 04:14:12;;;;;;;2.06;0.10;;;;;;;10.94;93.50;99278.53;2016213;80;20310;-76
2020/12/22 04:17:13;;;;;;;0.32;0.10;;;;;;;10.95;93.49;99276.81;2017240;80;20229;-75
2020/12/22 04:20:15;;;;;;;0.20;0.20;;;;;;;10.96;93.44;99281.16;2017115;80;20210;-76
2020/12/22 04:23:17;;;;;;;0.10;0.10;;;;;;;10.98;93.42;99279.41;2014946;80;20283;-75
2020/12/22 04:26:18;;;;;;;0.20;0.20;;;;;;;10.99;93.28;99281.13;2016048;80;20918;-75
2020/12/22 04:29:20;;;;;;;0.17;0.17;;;;;;;10.99;93.29;99283.72;2015268;80;20188;-75
2020/12/22 04:32:22;;;;;;;0.20;0.20;;;;;;;10.99;93.38;99281.13;2015858;80;20252;-75
2020/12/22 04:35:23;;;;;;;0.16;0.16;;;;;;;11.00;93.52;99282.84;2016125;80;20394;-75
2020/12/22 04:38:25;;;;;;;0.10;0.10;;;;;;;11.01;93.62;99277.63;2015961;80;20180;-76
2020/12/22 04:41:28;;;;;;;0.10;0.10;;;;;;;11.02;93.67;99279.34;2016750;80;20573;-76
2020/12/22 04:44:30;;;;;;;0.10;0.10;;;;;;;11.05;93.81;99279.31;2016507;80;20180;-75
2020/12/22 04:47:37;;;;;;;1.05;0.20;;;;;;;11.06;93.84;99277.59;2016623;80;20191;-75
2020/12/22 04:50:44;;;;;;;0.50;0.10;;;;;;;11.08;93.92;99271.50;2015764;80;20167;-75
2020/12/22 04:53:46;;;;;;;0.10;0.10;;;;;;;11.10;93.92;99280.16;2016180;80;20197;-76
2020/12/22 04:56:50;;;;;;;0.40;0.20;;;;;;;11.12;93.89;99280.13;2017190;80;20187;-76
2020/12/22 04:59:52;;;;;;;0.10;0.10;;;;;;;11.13;93.78;99284.44;2016573;80;20213;-75
2020/12/22 05:02:56;;;;;;;0.10;0.10;;;;;;;11.12;93.64;99293.97;2017342;80;20268;-75
2020/12/22 05:05:58;;;;;;;0.36;0.10;;;;;;;11.14;93.52;99296.59;2016296;80;20175;-75
2020/12/22 05:09:00;;;;;;;0.10;0.10;;;;;;;11.12;93.40;99296.59;2015886;80;20197;-75
2020/12/22 05:12:02;;;;;;;0.34;0.30;;;;;;;11.11;93.44;99301.78;2015943;80;20198;-75
2020/12/22 05:15:06;;;;;;;0.57;0.05;;;;;;;11.10;93.47;99306.13;2016243;80;20228;-75
2020/12/22 05:18:08;;;;;;;0.51;0.10;;;;;;;11.09;93.46;99295.75;2017337;80;20241;-76
2020/12/22 05:21:10;;;;;;;0.10;0.10;;;;;;;11.07;93.37;99292.31;2017088;80;20880;-74
2020/12/22 05:24:13;;;;;;;0.10;0.10;;;;;;;11.06;93.45;99291.44;2016616;80;20656;-74
2020/12/22 05:27:15;;;;;;;0.06;0.06;;;;;;;11.08;93.50;99294.03;2017201;80;20176;-74
2020/12/22 05:30:19;;;;;;;0.10;0.10;;;;;;;11.08;93.44;99292.28;2020037;80;20195;-74
2020/12/22 05:33:21;;;;;;;0.74;0.40;;;;;;;11.10;93.45;99294.88;2016974;80;20756;-74
2020/12/22 05:36:25;;;;;;;0.61;0.20;;;;;;;11.10;93.38;99294.88;2015829;80;20701;-74
2020/12/22 05:39:27;;;;;;;0.66;0.10;;;;;;;11.08;93.39;99283.63;2020253;80;20225;-75
2020/12/22 05:42:29;;;;;;;0.22;0.10;;;;;;;11.09;93.36;99291.41;2017184;80;20236;-75
2020/12/22 05:45:32;;;;;;;0.52;0.10;;;;;;;11.07;93.41;99290.56;2016544;80;20788;-75
2020/12/22 05:48:35;;;;;;;0.10;0.10;;;;;;;11.10;93.40;99298.34;2016208;80;20232;-77
2020/12/22 05:51:43;;;;;;;0.16;0.10;;;;;;;11.13;93.34;99298.34;2016303;80;20249;-76
2020/12/22 05:54:46;;;;;;;0.10;0.10;;;;;;;11.12;93.17;99296.59;2017064;80;20263;-76
2020/12/22 05:57:47;;;;;;;0.39;0.10;;;;;;;11.14;93.10;99302.66;2016738;80;20230;-75
2020/12/22 06:00:49;;;;;;;0.14;0.10;;;;;;;11.13;93.01;99297.44;2016261;80;20229;-75
2020/12/22 06:03:52;;;;;;;0.50;0.11;;;;;;;11.12;93.13;99300.91;2016434;80;20218;-75
2020/12/22 06:06:53;;;;;;;0.10;0.10;;;;;;;11.14;93.10;99302.66;2015450;80;20415;-76
2020/12/22 06:09:56;;;;;;;0.52;0.10;;;;;;;11.13;93.02;99302.63;2015372;80;20187;-77
2020/12/22 06:12:59;;;;;;;0.10;0.10;;;;;;;11.12;92.96;99306.97;2014757;80;20218;-76
2020/12/22 06:16:01;;;;;;;0.10;0.10;;;;;;;11.11;93.05;99309.59;2014564;80;20221;-76
2020/12/22 06:19:06;;;;;;;1.09;0.10;;;;;;;11.12;93.04;99321.69;2015263;80;20213;-76
2020/12/22 06:22:11;;;;;;;1.55;0.10;;;;;;;11.12;93.10;99316.50;2012899;80;20996;-76
2020/12/22 06:25:20;;;;;;;0.10;0.10;;;;;;;11.15;93.07;99317.38;2011744;80;20206;-75
2020/12/22 06:28:28;;;;;;;0.10;0.10;;;;;;;11.16;92.97;99318.22;2012940;80;20670;-75
2020/12/22 06:31:33;;;;;;;0.10;0.10;;;;;;;11.15;92.92;99322.56;2012965;80;20229;-77
2020/12/22 06:34:35;;;;;;;1.01;0.10;;;;;;;11.15;92.89;99327.78;2013758;80;20923;-76
2020/12/22 06:37:41;;;;;;;0.10;0.10;;;;;;;11.17;92.93;99330.34;2014619;80;20217;-76
2020/12/22 06:40:55;;;;;;;0.25;0.10;;;;;;;11.19;92.96;99326.00;2016185;80;20209;-76
2020/12/22 06:43:57;;;;;;;0.29;0.10;;;;;;;11.20;92.94;99322.53;2015488;80;20180;-76
2020/12/22 06:47:00;;;;;;;1.17;0.10;;;;;;;11.22;92.92;99322.50;2016124;80;20172;-76
2020/12/22 06:50:02;;;;;;;0.39;0.10;;;;;;;11.22;92.88;99323.38;2015734;80;20219;-77
2020/12/22 06:53:05;;;;;;;0.05;0.05;;;;;;;11.23;92.93;99329.44;2015376;80;20196;-76
2020/12/22 06:56:07;;;;;;;0.34;0.10;;;;;;;11.27;93.02;99331.13;2015306;80;20244;-76
2020/12/22 06:59:32;;;;;;;0.10;0.10;;;;;;;11.26;92.85;99334.59;2015973;80;20163;-77
2020/12/22 07:02:36;;;;;;;0.00;0.00;;;;;;;11.24;92.93;99334.63;2018286;80;20934;-80
2020/12/22 07:05:43;;;;;;;0.10;0.10;;;;;;;11.29;93.11;99342.38;2017556;80;20211;-76
2020/12/22 07:08:45;;;;;;;0.10;0.10;;;;;;;11.27;92.96;99334.59;2015639;80;20747;-77
2020/12/22 07:11:49;;;;;;;1.31;0.10;;;;;;;11.30;93.04;99336.28;2015805;80;20326;-77
2020/12/22 07:14:51;;;;;;;0.20;0.20;;;;;;;11.33;93.14;99334.56;2015494;80;20180;-79
2020/12/22 07:18:12;;;;;;;0.20;0.20;;;;;;;11.35;92.97;99344.94;2015339;80;20176;-76
2020/12/22 07:21:14;;;;;;;0.20;0.20;;;;;;;11.36;92.96;99351.84;2016235;80;21103;-78
2020/12/22 07:24:16;;;;;;;0.10;0.10;;;;;;;11.39;93.06;99347.50;2015290;80;20245;-76
2020/12/22 07:27:18;;;;;;;0.30;0.20;;;;;;;11.43;92.98;99356.97;2017525;80;20202;-82
2020/12/22 07:30:20;;;;;;;0.10;0.10;;;;;;;11.45;92.87;99367.38;2021978;80;20221;-79
2020/12/22 07:33:22;;;;;;;0.10;0.10;;;;;;;11.45;92.87;99375.16;2017870;80;20188;-78
2020/12/22 07:36:23;;;;;;;1.10;0.13;;;;;;;11.46;92.88;99382.09;2017987;80;20544;-78
2020/12/22 07:39:26;;;;;;;0.44;0.20;;;;;;;11.48;92.93;99385.53;2015923;80;20192;-77
2020/12/22 07:42:27;;;;;;;0.16;0.16;;;;;;;11.50;92.81;99378.59;2015873;80;20167;-79
2020/12/22 07:45:29;;;;;;;0.66;0.13;;;;;;;11.50;92.81;99382.06;2015867;80;20179;-77
2020/12/22 07:48:32;;;;;;;0.20;0.20;;;;;;;11.53;92.74;99382.91;2017607;80;20172;-79
2020/12/22 07:51:34;;;;;;;0.11;0.11;;;;;;;11.53;92.61;99381.19;2015739;80;20171;-78
2020/12/22 07:54:36;;;;;;;0.38;0.20;;;;;;;11.53;92.61;99377.72;2016633;80;20216;-80
2020/12/22 07:57:39;;;;;;;0.34;0.20;;;;;;;11.53;92.58;99378.59;2015255;80;20195;-78
2020/12/22 08:00:40;;;;;;;0.17;0.17;;;;;;;11.54;92.55;99376.84;2015420;80;20197;-78
2020/12/22 08:03:42;;;;;;;0.20;0.20;;;;;;;11.56;92.53;99382.88;2015621;80;20172;-79
2020/12/22 08:06:56;;;;;;;0.20;0.20;;;;;;;11.58;92.45;99388.94;2015746;80;20930;-78
2020/12/22 08:09:58;;;;;;;1.25;0.20;;;;;;;11.59;92.46;99386.31;2016399;80;20187;-78
2020/12/22 08:13:00;;;;;;;0.22;0.20;;;;;;;11.63;92.46;99398.41;2015518;80;20198;-78
2020/12/22 08:16:02;;;;;;;1.10;0.10;;;;;;;11.65;92.20;99396.66;2015967;80;20328;-78
2020/12/22 08:19:05;;;;;;;0.13;0.10;;;;;;;11.66;92.34;99400.97;2015190;80;20226;-78
2020/12/22 08:22:07;;;;;;;0.20;0.20;;;;;;;11.68;92.31;99411.41;2015319;80;20725;-78
2020/12/22 08:25:11;;;;;;;0.20;0.11;;;;;;;11.70;92.23;99404.44;2015740;80;20221;-77
2020/12/22 08:28:26;;;;;;;0.20;0.20;;;;;;;11.72;92.29;99415.69;2015536;80;20653;-78
2020/12/22 08:31:28;;;;;;;1.74;0.20;;;;;;;11.72;92.21;99420.91;2015422;80;20188;-77
2020/12/22 08:34:31;;;;;;;0.21;0.21;;;;;;;11.75;92.30;99418.25;2015333;80;20207;-77
2020/12/22 08:37:36;;;;;;;0.77;0.30;;;;;;;11.77;92.22;99426.91;2015753;80;20298;-78
2020/12/22 08:40:38;;;;;;;0.30;0.30;;;;;;;11.75;92.17;99423.47;2015657;80;20266;-77
2020/12/22 08:43:48;;;;;;;0.71;0.30;;;;;;;11.76;92.23;99433.00;2015346;80;20335;-77
2020/12/22 08:46:50;;;;;;;0.32;0.20;;;;;;;11.76;92.22;99425.19;2015928;80;20193;-77
2020/12/22 08:49:52;;;;;;;0.20;0.20;;;;;;;11.75;92.31;99424.31;2015181;80;20965;-76
2020/12/22 08:52:54;;;;;;;0.36;0.30;;;;;;;11.75;92.30;99423.47;2015059;80;20197;-76
2020/12/22 08:56:08;;;;;;;0.95;0.20;;;;;;;11.74;92.24;99425.22;2015129;80;20225;-77
2020/12/22 08:59:11;;;;;;;0.30;0.30;;;;;;;11.75;92.36;99426.06;2015719;80;20693;-78
2020/12/22 09:02:29;;;;;;;0.21;0.20;;;;;;;11.77;92.36;99438.19;2016276;80;20179;-78
2020/12/22 09:05:31;;;;;;;0.30;0.28;;;;;;;11.79;92.39;99446.00;2014970;80;20179;-78
2020/12/22 09:08:33;;;;;;;0.69;0.20;;;;;;;11.82;92.40;99447.72;2015459;80;20214;-78
2020/12/22 09:11:36;;;;;;;0.10;0.10;;;;;;;11.83;92.40;99444.22;2014822;80;20163;-79
2020/12/22 09:14:46;;;;;;;0.20;0.20;;;;;;;11.85;92.40;99447.69;2014987;80;20184;-78
2020/12/22 09:17:47;;;;;;;0.84;0.20;;;;;;;11.87;92.40;99457.22;2015528;80;20179;-78
2020/12/22 09:21:05;;;;;;;0.60;0.25;;;;;;;11.89;92.41;99452.00;2015072;80;20207;-78
2020/12/22 09:24:18;;;;;;;0.19;0.19;;;;;;;11.92;92.53;99454.56;2014894;80;20774;-78
2020/12/22 09:27:37;;;;;;;0.10;0.10;;;;;;;11.98;92.49;99464.91;2014992;80;20179;-78
2020/12/22 09:30:38;;;;;;;0.10;0.10;;;;;;;12.00;92.36;99482.25;2015727;80;20201;-79
2020/12/22 09:33:40;;;;;;;0.01;0.01;;;;;;;12.06;92.36;99481.34;2015179;80;20231;-77
2020/12/22 09:36:42;;;;;;;0.19;0.19;;;;;;;12.11;92.26;99484.75;2015192;80;20270;-78
2020/12/22 09:39:45;;;;;;;0.10;0.10;;;;;;;12.15;92.17;99481.25;2015298;80;20184;-77
2020/12/22 09:42:47;;;;;;;0.11;0.10;;;;;;;12.19;92.04;99482.94;2015257;80;20958;-77
2020/12/22 09:45:48;;;;;;;0.21;0.10;;;;;;;12.22;91.93;99490.75;2010002;80;20195;-78
2020/12/22 09:48:50;;;;;;;0.10;0.10;;;;;;;12.26;91.86;99488.97;2010179;80;20764;-77
2020/12/22 09:51:53;;;;;;;1.83;0.10;;;;;;;12.27;91.61;99480.28;2010891;80;20595;-77
2020/12/22 09:54:54;;;;;;;0.10;0.10;;;;;;;12.30;91.56;99485.44;2010507;80;20229;-77
2020/12/22 09:57:56;;;;;;;0.10;0.09;;;;;;;12.31;91.22;99489.78;2012001;80;21200;-78
2020/12/22 10:00:58;;;;;;;0.20;0.09;;;;;;;12.35;91.31;99494.06;2015039;80;20205;-75
2020/12/22 10:03:59;;;;;;;0.29;0.10;;;;;;;12.40;91.17;99487.94;2014892;80;20175;-78
2020/12/22 10:07:03;;;;;;;0.10;0.10;;;;;;;12.44;91.08;99482.72;2014914;80;20685;-78
2020/12/22 10:10:05;;;;;;;1.27;0.10;;;;;;;12.47;90.97;99474.84;2016420;80;20196;-79
2020/12/22 10:13:07;;;;;;;0.25;0.10;;;;;;;12.51;90.82;99492.16;2015860;80;20224;-79
2020/12/22 10:16:10;;;;;;;0.32;0.16;;;;;;;12.54;90.67;99479.97;2016445;80;20196;-79
2020/12/22 10:19:12;;;;;;;0.01;0.01;;;;;;;12.59;90.53;99487.75;2015793;80;20478;-79
2020/12/22 10:22:14;;;;;;;0.21;0.00;;;;;;;12.60;90.30;99474.72;2016124;80;20570;-79
2020/12/22 10:25:15;;;;;;;0.14;0.00;;;;;;;12.64;90.05;99491.16;2015722;80;20225;-80
2020/12/22 10:28:17;;;;;;;1.70;0.10;;;;;;;12.64;90.04;99486.81;2016207;80;20164;-80
2020/12/22 10:31:22;;;;;;;0.39;0.10;;;;;;;12.64;89.80;99489.41;2016840;80;20265;-80
2020/12/22 10:34:24;;;;;;;1.50;0.10;;;;;;;12.67;89.65;99494.59;2015539;80;20990;-80
2020/12/22 10:37:28;;;;;;;0.00;0.00;;;;;;;12.70;89.61;99493.69;2017505;80;20160;-80
2020/12/22 10:40:30;;;;;;;0.15;0.10;;;;;;;12.67;89.66;99497.19;2016540;80;20175;-80
2020/12/22 10:43:31;;;;;;;0.28;0.00;;;;;;;12.66;89.58;99499.81;2017396;80;20184;-80
2020/12/22 10:46:33;;;;;;;0.10;0.00;;;;;;;12.65;89.74;99500.72;2015822;80;20213;-80
2020/12/22 10:49:35;;;;;;;0.00;0.00;;;;;;;12.61;89.79;99502.50;2016078;80;20211;-79
2020/12/22 10:52:36;;;;;;;0.16;0.00;;;;;;;12.61;89.91;99499.03;2015438;80;20227;-79
2020/12/22 10:55:39;;;;;;;0.20;0.00;;;;;;;12.59;90.01;99506.00;2015336;80;20187;-80
2020/12/22 10:58:44;;;;;;;0.01;0.01;;;;;;;12.57;90.28;99512.97;2015691;80;20192;-79
2020/12/22 11:01:49;;;;;;;0.51;0.10;;;;;;;12.56;90.42;99508.59;2015654;80;20284;-79
2020/12/22 11:04:54;;;;;;;0.38;0.10;;;;;;;12.52;90.57;99499.97;2015441;80;20326;-79
2020/12/22 11:07:55;;;;;;;0.10;0.00;;;;;;;12.54;90.94;99505.16;2014436;80;20204;-80
2020/12/22 11:10:57;;;;;;;0.00;0.00;;;;;;;12.56;90.88;99508.59;2015690;80;20513;-80
2020/12/22 11:13:59;;;;;;;0.68;0.20;;;;;;;12.58;90.91;99501.66;2112603;69;20228;-81
2020/12/22 11:17:00;;;;;;;0.10;0.10;;;;;;;12.56;90.89;99501.66;2025550;79;20219;-81
2020/12/22 11:20:02;;;;;;;0.30;0.10;;;;;;;12.55;91.01;99497.31;2027012;79;20296;-81
2020/12/22 11:23:04;;;;;;;1.15;0.10;;;;;;;12.54;91.15;99508.63;2026806;79;20210;-81
2020/12/22 11:26:10;;;;;;;1.74;0.10;;;;;;;12.54;91.16;99499.94;2022311;80;20191;-81
2020/12/22 11:29:12;;;;;;;0.14;0.03;;;;;;;12.56;91.40;99498.19;2023860;80;20597;-80
2020/12/22 11:32:13;;;;;;;0.09;0.00;;;;;;;12.58;91.48;99497.31;2022871;80;20228;-81
2020/12/22 11:35:15;;;;;;;0.00;0.00;;;;;;;12.61;91.41;99506.84;2021689;80;20889;-81
2020/12/22 11:38:17;;;;;;;0.14;0.10;;;;;;;12.61;91.47;99493.81;2024143;80;20504;-81
2020/12/22 11:41:23;;;;;;;0.14;0.09;;;;;;;12.63;91.56;99495.50;2024369;80;20182;-81
2020/12/22 11:44:25;;;;;;;0.46;0.20;;;;;;;12.66;91.50;99494.63;2022086;80;20199;-81
2020/12/22 11:47:27;;;;;;;0.32;0.10;;;;;;;12.67;91.42;99497.19;2022942;80;20521;-81
2020/12/22 11:50:28;;;;;;;1.71;0.09;;;;;;;12.74;91.48;99491.91;2026549;80;20624;-82
2020/12/22 11:53:30;;;;;;;0.11;0.10;;;;;;;12.76;91.27;99488.44;2029673;79;20187;-81
2020/12/22 11:56:32;;;;;;;0.09;0.09;;;;;;;12.75;91.29;99491.03;2024262;79;20667;-81
2020/12/22 11:59:33;;;;;;;0.86;0.10;;;;;;;12.72;91.31;99491.94;2025896;80;20194;-82
2020/12/22 12:02:35;;;;;;;0.10;0.10;;;;;;;12.70;91.39;99498.91;2026458;80;20191;-81
2020/12/22 12:05:37;;;;;;;0.49;0.09;;;;;;;12.71;91.48;99496.28;2023295;80;20253;-80
2020/12/22 12:08:38;;;;;;;0.00;0.00;;;;;;;12.70;91.45;99491.94;2025400;80;20527;-81
2020/12/22 12:11:46;;;;;;;1.69;0.09;;;;;;;12.74;91.49;99487.56;2025735;79;20589;-82
2020/12/22 12:14:52;;;;;;;1.88;0.10;;;;;;;12.79;91.57;99491.00;2030547;79;20195;-81
2020/12/22 12:17:54;;;;;;;0.00;0.00;;;;;;;12.81;91.56;99483.16;2026260;80;20728;-81
2020/12/22 12:20:58;;;;;;;0.10;0.10;;;;;;;12.85;91.48;99483.09;2026993;80;20310;-82
2020/12/22 12:24:01;;;;;;;0.38;0.29;;;;;;;12.90;91.50;99485.63;2027176;80;20364;-81
2020/12/22 12:27:03;;;;;;;1.16;0.00;;;;;;;12.92;91.41;99473.44;2027227;80;20220;-81
2020/12/22 12:30:06;;;;;;;0.09;0.00;;;;;;;12.92;91.22;99468.22;2026811;80;20226;-83
2020/12/22 12:33:07;;;;;;;0.04;0.04;;;;;;;12.95;91.25;99470.81;2026642;80;20203;-80
2020/12/22 12:36:13;;;;;;;0.05;0.05;;;;;;;12.96;91.15;99472.56;2023191;80;20294;-81
2020/12/22 12:39:15;;;;;;;1.58;0.10;;;;;;;12.97;91.14;99474.28;2023039;80;20624;-80
2020/12/22 12:42:17;;;;;;;0.44;0.10;;;;;;;12.96;91.10;99478.63;2021507;80;20220;-79
2020/12/22 12:45:19;;;;;;;0.14;0.10;;;;;;;12.94;91.08;99469.97;2020910;80;20187;-80
2020/12/22 12:48:21;;;;;;;0.32;0.00;;;;;;;12.93;91.13;99468.25;2023785;80;20220;-80
2020/12/22 12:51:22;;;;;;;0.10;0.10;;;;;;;12.95;91.25;99469.09;2022104;80;20186;-80
2020/12/22 12:54:24;;;;;;;0.10;0.10;;;;;;;12.95;91.25;99465.63;2025626;80;20214;-81
2020/12/22 12:57:26;;;;;;;0.09;0.09;;;;;;;12.96;91.28;99462.97;2026042;80;20219;-80
2020/12/22 13:00:28;;;;;;;1.14;0.06;;;;;;;12.98;91.35;99458.59;2022977;80;20977;-80
2020/12/22 13:03:30;;;;;;;0.06;0.00;;;;;;;12.96;91.06;99460.38;2022536;80;21083;-80
2020/12/22 13:06:31;;;;;;;0.16;0.10;;;;;;;12.96;91.15;99459.50;2022548;80;20191;-81
2020/12/22 13:09:33;;;;;;;0.08;0.06;;;;;;;12.95;91.22;99457.78;2023934;80;20224;-81
2020/12/22 13:12:35;;;;;;;0.00;0.00;;;;;;;12.96;91.39;99449.09;2022387;80;20179;-80
2020/12/22 13:15:37;;;;;;;0.69;0.10;;;;;;;12.96;91.34;99454.31;2024676;80;20269;-80
2020/12/22 13:18:39;;;;;;;0.10;0.00;;;;;;;12.97;91.45;99451.69;2026784;80;20210;-81
2020/12/22 13:21:42;;;;;;;0.10;0.10;;;;;;;13.00;91.56;99448.16;2027808;80;20317;-81
2020/12/22 13:24:43;;;;;;;0.00;0.00;;;;;;;13.05;91.67;99442.88;2027289;80;20207;-84
2020/12/22 13:27:45;;;;;;;0.00;0.00;;;;;;;13.07;91.65;99448.94;2026196;80;20225;-81
2020/12/22 13:30:47;;;;;;;0.10;0.10;;;;;;;13.10;91.81;99448.88;2027457;80;20195;-81
2020/12/22 13:33:49;;;;;;;1.10;0.01;;;;;;;13.12;91.69;99442.78;2028497;80;20215;-81
2020/12/22 13:36:53;;;;;;;0.00;0.00;;;;;;;13.14;91.67;99438.41;2027682;80;20191;-82
2020/12/22 13:40:15;;;;;;;0.00;0.00;;;;;;;13.17;91.53;99450.53;2031367;80;20260;-81
2020/12/22 13:43:18;;;;;;;0.57;0.10;;;;;;;13.17;91.47;99445.31;2030173;80;20191;-81
2020/12/22 13:46:25;;;;;;;0.10;0.10;;;;;;;13.12;91.37;99439.31;2027528;80;20204;-81
2020/12/22 13:49:26;;;;;;;0.05;0.00;;;;;;;13.11;91.40;99446.28;2028231;80;20198;-81
2020/12/22 13:52:28;;;;;;;0.10;0.10;;;;;;;13.10;91.53;99438.47;2029117;80;20625;-81
2020/12/22 13:55:30;;;;;;;0.10;0.10;;;;;;;13.09;91.41;99445.41;2028580;80;20223;-81
2020/12/22 13:58:31;;;;;;;0.10;0.10;;;;;;;13.08;91.53;99440.22;2028775;80;20224;-82
2020/12/22 14:01:33;;;;;;;0.10;0.10;;;;;;;13.06;91.50;99442.84;2027390;80;20370;-80
2020/12/22 14:04:35;;;;;;;0.10;0.10;;;;;;;13.01;91.60;99453.34;2022718;80;20925;-80
2020/12/22 14:07:36;;;;;;;0.20;0.10;;;;;;;13.00;91.73;99449.03;2027924;80;20193;-81
2020/12/22 14:10:38;;;;;;;0.86;0.10;;;;;;;13.02;91.92;99441.19;2027807;80;20200;-81
2020/12/22 14:13:39;;;;;;;0.10;0.10;;;;;;;13.01;91.96;99452.50;2026493;80;20203;-80
2020/12/22 14:16:42;;;;;;;0.10;0.10;;;;;;;13.00;92.06;99455.97;2024067;80;20195;-80
2020/12/22 14:19:44;;;;;;;0.10;0.10;;;;;;;12.97;92.05;99453.41;2020711;80;20194;-77
2020/12/22 14:22:45;;;;;;;1.80;0.10;;;;;;;12.96;92.17;99464.72;2023398;80;20740;-81
2020/12/22 14:26:00;;;;;;;0.20;0.10;;;;;;;12.98;92.26;99465.56;2028996;80;20182;-82